Time;durP1;ratioP1;P1;durP2;ratioP2;P2;SDS_P1;SDS_P2;PMS_P1;PMS_P2;Temp;Humidity;BMP_temperature;BMP_pressure;BME280_temperature;BME280_humidity;BME280_pressure;Samples;Min_cycle;Max_cycle;Signal;HPM_P1;HPM_P2
2021/07/06 00:01:23;;;;;;;3.42;1.60;;;;;;;;;;3576245;40;20384;-62
2021/07/06 00:03:50;;;;;;;2.93;1.60;;;;;;;;;;3574286;40;20472;-62
2021/07/06 00:06:16;;;;;;;2.42;1.65;;;;;;;;;;3576392;40;20379;-61
2021/07/06 00:08:42;;;;;;;3.10;1.60;;;;;;;;;;3572039;40;20475;-62
2021/07/06 00:11:08;;;;;;;2.17;1.48;;;;;;;;;;3576458;40;20407;-62
2021/07/06 00:13:36;;;;;;;2.25;1.70;;;;;;;;;;3576102;40;20384;-61
2021/07/06 00:16:02;;;;;;;2.17;1.80;;;;;;;;;;3576432;40;20392;-62
2021/07/06 00:18:28;;;;;;;2.40;1.60;;;;;;;;;;3576161;40;20383;-61
2021/07/06 00:20:54;;;;;;;2.00;1.47;;;;;;;;;;3576121;40;20394;-61
2021/07/06 00:23:20;;;;;;;2.90;1.75;;;;;;;;;;3573853;40;20462;-61
2021/07/06 00:25:47;;;;;;;1.92;1.58;;;;;;;;;;3582193;40;20384;-61
2021/07/06 00:28:13;;;;;;;1.65;1.55;;;;;;;;;;3579863;40;20380;-61
2021/07/06 00:30:41;;;;;;;1.58;1.45;;;;;;;;;;3576323;40;20438;-61
2021/07/06 00:33:07;;;;;;;1.30;1.20;;;;;;;;;;3576373;40;20391;-61
2021/07/06 00:35:33;;;;;;;2.10;1.40;;;;;;;;;;3576648;40;20482;-61
2021/07/06 00:37:59;;;;;;;1.67;1.58;;;;;;;;;;3576510;40;20372;-61
2021/07/06 00:40:25;;;;;;;2.13;1.42;;;;;;;;;;3575900;40;20371;-62
2021/07/06 00:42:58;;;;;;;1.73;1.63;;;;;;;;;;3576231;40;20839;-62
2021/07/06 00:45:25;;;;;;;2.03;1.75;;;;;;;;;;3575564;40;20391;-62
2021/07/06 00:47:53;;;;;;;1.60;1.50;;;;;;;;;;3576328;40;20384;-61
2021/07/06 00:50:20;;;;;;;2.10;1.37;;;;;;;;;;3566264;40;20460;-62
2021/07/06 00:52:46;;;;;;;1.40;1.30;;;;;;;;;;3566551;40;20402;-61
2021/07/06 00:55:13;;;;;;;1.60;1.50;;;;;;;;;;3576173;40;20399;-61
2021/07/06 00:57:39;;;;;;;1.63;1.50;;;;;;;;;;3578091;40;20372;-61
2021/07/06 01:00:07;;;;;;;2.28;1.65;;;;;;;;;;3576059;40;20376;-61
2021/07/06 01:02:33;;;;;;;3.22;2.03;;;;;;;;;;3576163;40;20403;-61
2021/07/06 01:05:00;;;;;;;2.30;1.45;;;;;;;;;;3574697;40;20418;-61
2021/07/06 01:07:27;;;;;;;1.55;1.30;;;;;;;;;;3565644;40;20440;-61
2021/07/06 01:09:53;;;;;;;1.60;1.33;;;;;;;;;;3566931;40;20453;-61
2021/07/06 01:12:19;;;;;;;1.98;1.00;;;;;;;;;;3569649;40;20723;-61
2021/07/06 01:14:45;;;;;;;1.10;1.00;;;;;;;;;;3568750;40;20394;-62
2021/07/06 01:17:11;;;;;;;2.17;1.17;;;;;;;;;;3565016;40;20746;-62
2021/07/06 01:19:38;;;;;;;1.48;0.90;;;;;;;;;;3565802;40;20475;-61
2021/07/06 01:22:06;;;;;;;3.08;1.15;;;;;;;;;;3565498;40;20390;-61
2021/07/06 01:24:33;;;;;;;2.75;1.40;;;;;;;;;;3567309;40;20385;-62
2021/07/06 01:26:59;;;;;;;2.00;1.13;;;;;;;;;;3567239;40;20384;-62
2021/07/06 01:29:25;;;;;;;1.35;1.00;;;;;;;;;;3567271;40;20393;-61
2021/07/06 01:31:51;;;;;;;1.08;0.98;;;;;;;;;;3567179;40;20818;-62
2021/07/06 01:34:18;;;;;;;2.42;1.15;;;;;;;;;;3567502;40;20808;-62
2021/07/06 01:36:45;;;;;;;1.90;1.10;;;;;;;;;;3568607;40;20415;-62
2021/07/06 01:39:12;;;;;;;2.13;1.20;;;;;;;;;;3567073;40;20374;-61
2021/07/06 01:41:39;;;;;;;1.77;0.93;;;;;;;;;;3567495;40;20632;-61
2021/07/06 01:44:17;;;;;;;2.70;1.30;;;;;;;;;;3567266;40;20425;-61
2021/07/06 01:46:43;;;;;;;2.80;1.30;;;;;;;;;;3565673;40;20666;-63
2021/07/06 01:49:11;;;;;;;1.52;1.10;;;;;;;;;;3568650;40;20386;-61
2021/07/06 01:51:37;;;;;;;1.90;0.90;;;;;;;;;;3568747;40;20378;-62
2021/07/06 01:54:03;;;;;;;1.30;1.20;;;;;;;;;;3568481;40;20433;-61
2021/07/06 01:56:31;;;;;;;2.55;1.33;;;;;;;;;;3565557;40;20722;-61
2021/07/06 01:58:57;;;;;;;2.80;1.30;;;;;;;;;;3567216;40;20397;-61
2021/07/06 02:01:23;;;;;;;2.17;1.08;;;;;;;;;;3566097;40;20405;-61
2021/07/06 02:03:50;;;;;;;2.90;1.10;;;;;;;;;;3567036;40;20414;-61
2021/07/06 02:06:16;;;;;;;1.43;1.00;;;;;;;;;;3580286;40;20395;-61
2021/07/06 02:08:42;;;;;;;1.52;1.20;;;;;;;;;;3583963;40;20383;-62
2021/07/06 02:11:09;;;;;;;1.52;1.00;;;;;;;;;;3577060;40;20469;-61
2021/07/06 02:13:36;;;;;;;2.45;1.17;;;;;;;;;;3577269;40;20756;-63
2021/07/06 02:16:02;;;;;;;2.40;1.30;;;;;;;;;;3582577;40;20398;-62
2021/07/06 02:18:29;;;;;;;1.23;1.10;;;;;;;;;;3579754;40;20394;-61
2021/07/06 02:20:56;;;;;;;1.58;1.20;;;;;;;;;;3582558;40;20449;-61
2021/07/06 02:23:23;;;;;;;2.35;1.10;;;;;;;;;;3576896;40;20368;-62
2021/07/06 02:25:49;;;;;;;2.13;1.10;;;;;;;;;;3576901;40;20412;-62
2021/07/06 02:28:15;;;;;;;1.58;1.20;;;;;;;;;;3583547;40;20378;-62
2021/07/06 02:30:43;;;;;;;2.15;1.00;;;;;;;;;;3564440;40;20406;-63
2021/07/06 02:33:09;;;;;;;2.28;1.30;;;;;;;;;;3584804;40;20374;-62
2021/07/06 02:35:35;;;;;;;1.92;1.00;;;;;;;;;;3584164;40;20386;-61
2021/07/06 02:38:02;;;;;;;1.45;1.02;;;;;;;;;;3582971;40;20373;-62
2021/07/06 02:40:29;;;;;;;1.42;1.20;;;;;;;;;;3585594;40;20417;-61
2021/07/06 02:42:55;;;;;;;1.48;1.05;;;;;;;;;;3567621;40;20406;-61
2021/07/06 02:45:21;;;;;;;1.60;1.10;;;;;;;;;;3583456;40;20374;-62
2021/07/06 02:47:49;;;;;;;2.60;1.20;;;;;;;;;;3583619;40;20390;-61
2021/07/06 02:50:16;;;;;;;2.30;1.00;;;;;;;;;;3573676;40;20461;-62
2021/07/06 02:52:43;;;;;;;1.70;1.20;;;;;;;;;;3575353;40;20641;-62
2021/07/06 02:55:09;;;;;;;1.30;1.10;;;;;;;;;;3567768;40;20399;-62
2021/07/06 02:57:36;;;;;;;1.55;1.30;;;;;;;;;;3577512;40;20384;-72
2021/07/06 03:00:13;;;;;;;1.70;1.05;;;;;;;;;;3555689;40;20413;-70
2021/07/06 03:02:40;;;;;;;2.70;1.30;;;;;;;;;;3575033;40;20361;-69
2021/07/06 03:05:09;;;;;;;2.53;1.30;;;;;;;;;;3573192;40;20414;-70
2021/07/06 03:07:35;;;;;;;2.07;1.30;;;;;;;;;;3566878;40;20786;-69
2021/07/06 03:10:02;;;;;;;2.72;1.65;;;;;;;;;;3567472;40;20373;-70
2021/07/06 03:12:30;;;;;;;1.30;1.20;;;;;;;;;;3566102;40;20693;-70
2021/07/06 03:14:56;;;;;;;2.75;1.00;;;;;;;;;;3566216;40;20420;-70
2021/07/06 03:17:22;;;;;;;3.10;1.15;;;;;;;;;;3566530;40;20499;-71
2021/07/06 03:19:48;;;;;;;3.10;1.20;;;;;;;;;;3567452;40;20389;-71
2021/07/06 03:22:16;;;;;;;2.53;1.30;;;;;;;;;;3573978;40;20378;-71
2021/07/06 03:24:42;;;;;;;2.10;1.30;;;;;;;;;;3567701;40;20398;-71
2021/07/06 03:27:08;;;;;;;2.40;1.10;;;;;;;;;;3569257;40;20629;-70
2021/07/06 03:29:34;;;;;;;1.40;1.25;;;;;;;;;;3572562;40;20839;-71
2021/07/06 03:32:01;;;;;;;2.33;1.42;;;;;;;;;;3574155;40;20456;-71
2021/07/06 03:34:27;;;;;;;1.38;1.15;;;;;;;;;;3567033;40;20740;-70
2021/07/06 03:36:53;;;;;;;2.45;1.40;;;;;;;;;;3561124;40;20412;-69
2021/07/06 03:39:20;;;;;;;1.60;1.40;;;;;;;;;;3568050;40;20382;-70
2021/07/06 03:41:47;;;;;;;1.92;1.05;;;;;;;;;;3567151;40;20425;-70
2021/07/06 03:44:13;;;;;;;1.85;1.20;;;;;;;;;;3566129;40;20390;-70
2021/07/06 03:46:39;;;;;;;1.25;1.10;;;;;;;;;;3566985;40;20394;-74
2021/07/06 03:49:05;;;;;;;1.55;1.13;;;;;;;;;;3566069;40;20394;-70
2021/07/06 03:51:33;;;;;;;1.30;1.00;;;;;;;;;;3567142;40;20378;-70
2021/07/06 03:53:59;;;;;;;2.28;1.30;;;;;;;;;;3567522;40;20389;-70
2021/07/06 03:56:26;;;;;;;1.98;1.20;;;;;;;;;;3565833;40;20487;-71
2021/07/06 03:58:52;;;;;;;2.15;1.20;;;;;;;;;;3565614;40;20738;-70
2021/07/06 04:01:19;;;;;;;1.83;1.02;;;;;;;;;;3571561;40;20667;-70
2021/07/06 04:03:45;;;;;;;2.45;1.20;;;;;;;;;;3570490;40;20634;-71
2021/07/06 04:06:11;;;;;;;1.20;1.10;;;;;;;;;;3572431;40;20410;-71
2021/07/06 04:08:37;;;;;;;2.60;1.10;;;;;;;;;;3571327;40;20437;-71
2021/07/06 04:11:03;;;;;;;1.30;1.20;;;;;;;;;;3572778;40;20390;-70
2021/07/06 04:13:31;;;;;;;1.88;1.00;;;;;;;;;;3566891;40;20433;-71
2021/07/06 04:15:57;;;;;;;1.25;1.15;;;;;;;;;;3566703;40;20402;-70
2021/07/06 04:18:23;;;;;;;2.55;1.33;;;;;;;;;;3559690;40;20380;-70
2021/07/06 04:20:49;;;;;;;2.30;1.38;;;;;;;;;;3566662;40;20821;-71
2021/07/06 04:23:15;;;;;;;2.35;1.25;;;;;;;;;;3567579;40;20480;-70
2021/07/06 04:25:42;;;;;;;1.80;1.20;;;;;;;;;;3566379;40;20479;-71
2021/07/06 04:28:08;;;;;;;2.13;1.23;;;;;;;;;;3565930;40;20381;-70
2021/07/06 04:30:35;;;;;;;2.60;1.67;;;;;;;;;;3568014;40;20404;-71
2021/07/06 04:33:01;;;;;;;1.30;1.20;;;;;;;;;;3565691;40;20742;-71
2021/07/06 04:35:28;;;;;;;1.20;1.10;;;;;;;;;;3563702;40;20666;-71
2021/07/06 04:37:54;;;;;;;2.22;1.30;;;;;;;;;;3566682;40;20377;-70
2021/07/06 04:40:20;;;;;;;1.77;1.20;;;;;;;;;;3566569;40;20380;-72
2021/07/06 04:42:46;;;;;;;2.37;1.20;;;;;;;;;;3567515;40;20382;-71
2021/07/06 04:45:13;;;;;;;2.03;1.45;;;;;;;;;;3566357;40;20373;-69
2021/07/06 04:47:40;;;;;;;4.30;1.15;;;;;;;;;;3566861;40;20849;-71
2021/07/06 04:50:08;;;;;;;2.42;1.00;;;;;;;;;;3566919;40;20430;-71
2021/07/06 04:52:35;;;;;;;2.13;1.30;;;;;;;;;;3562266;40;20401;-71
2021/07/06 04:55:01;;;;;;;1.55;1.25;;;;;;;;;;3565562;40;20409;-70
2021/07/06 04:57:27;;;;;;;1.50;1.40;;;;;;;;;;3566298;40;20382;-70
2021/07/06 04:59:53;;;;;;;2.10;1.33;;;;;;;;;;3570565;40;20393;-70
2021/07/06 05:02:20;;;;;;;4.60;1.40;;;;;;;;;;3572327;40;20700;-70
2021/07/06 05:04:47;;;;;;;1.48;1.35;;;;;;;;;;3572672;40;20847;-69
2021/07/06 05:07:14;;;;;;;1.70;1.48;;;;;;;;;;3572647;40;20770;-70
2021/07/06 05:09:40;;;;;;;3.13;1.80;;;;;;;;;;3572141;40;20701;-71
2021/07/06 05:12:07;;;;;;;3.05;2.03;;;;;;;;;;3569889;40;20401;-69
2021/07/06 05:14:33;;;;;;;2.38;1.70;;;;;;;;;;3564299;40;20415;-70
2021/07/06 05:17:01;;;;;;;1.83;1.40;;;;;;;;;;3574876;40;20411;-70
2021/07/06 05:19:27;;;;;;;2.00;1.67;;;;;;;;;;3570899;40;20484;-70
2021/07/06 05:21:55;;;;;;;9.30;5.57;;;;;;;;;;3574486;40;20652;-71
2021/07/06 05:24:21;;;;;;;5.13;2.80;;;;;;;;;;3570168;40;20401;-70
2021/07/06 05:26:47;;;;;;;2.35;2.05;;;;;;;;;;3571723;40;20411;-70
2021/07/06 05:29:14;;;;;;;2.88;1.67;;;;;;;;;;3567833;40;20803;-70
2021/07/06 05:31:41;;;;;;;2.57;1.20;;;;;;;;;;3570782;40;20376;-71
2021/07/06 05:34:07;;;;;;;2.53;1.63;;;;;;;;;;3569701;40;20389;-71
2021/07/06 05:36:34;;;;;;;4.28;1.67;;;;;;;;;;3576898;40;20391;-70
2021/07/06 05:39:01;;;;;;;2.10;1.27;;;;;;;;;;3567412;40;20471;-70
2021/07/06 05:41:28;;;;;;;3.00;1.35;;;;;;;;;;3568720;40;20771;-70
2021/07/06 05:43:54;;;;;;;2.22;1.33;;;;;;;;;;3567681;40;20378;-70
2021/07/06 05:46:20;;;;;;;2.55;1.55;;;;;;;;;;3567129;40;20404;-70
2021/07/06 05:48:46;;;;;;;2.87;1.27;;;;;;;;;;3567297;40;20388;-69
2021/07/06 05:51:12;;;;;;;1.60;1.30;;;;;;;;;;3561774;40;20389;-70
2021/07/06 05:53:38;;;;;;;1.35;1.25;;;;;;;;;;3568002;40;20378;-70
2021/07/06 05:56:06;;;;;;;1.52;1.42;;;;;;;;;;3567098;40;20482;-70
2021/07/06 05:58:32;;;;;;;1.52;1.35;;;;;;;;;;3567737;40;20501;-70
2021/07/06 06:00:58;;;;;;;2.28;1.27;;;;;;;;;;3567730;40;20435;-70
2021/07/06 06:03:24;;;;;;;2.20;1.27;;;;;;;;;;3567568;40;20401;-70
2021/07/06 06:05:52;;;;;;;2.58;1.42;;;;;;;;;;3573205;40;20416;-70
2021/07/06 06:08:18;;;;;;;2.22;1.17;;;;;;;;;;3567832;40;20690;-70
2021/07/06 06:10:44;;;;;;;2.13;1.50;;;;;;;;;;3566852;40;20425;-70
2021/07/06 06:13:12;;;;;;;2.67;1.58;;;;;;;;;;3573725;40;20396;-70
2021/07/06 06:15:39;;;;;;;2.80;1.73;;;;;;;;;;3567854;40;20409;-70
2021/07/06 06:18:05;;;;;;;1.92;1.10;;;;;;;;;;3558455;40;20406;-71
2021/07/06 06:20:31;;;;;;;2.58;1.52;;;;;;;;;;3566389;40;20406;-71
2021/07/06 06:22:57;;;;;;;1.55;1.40;;;;;;;;;;3561304;40;20431;-71
2021/07/06 06:25:23;;;;;;;2.58;1.30;;;;;;;;;;3565344;40;20394;-70
2021/07/06 06:27:50;;;;;;;2.00;1.20;;;;;;;;;;3566851;40;20397;-71
2021/07/06 06:30:18;;;;;;;2.90;1.40;;;;;;;;;;3569441;40;20395;-71
2021/07/06 06:32:44;;;;;;;4.70;1.50;;;;;;;;;;3568465;40;20484;-71
2021/07/06 06:35:12;;;;;;;16.45;2.78;;;;;;;;;;3570905;40;20399;-69
2021/07/06 06:37:38;;;;;;;3.42;1.73;;;;;;;;;;3567560;40;20393;-70
2021/07/06 06:40:05;;;;;;;3.60;2.10;;;;;;;;;;3568196;40;20385;-71
2021/07/06 06:42:31;;;;;;;1.80;1.40;;;;;;;;;;3566719;40;20388;-70
2021/07/06 06:44:57;;;;;;;2.00;1.40;;;;;;;;;;3567073;40;20402;-70
2021/07/06 06:47:25;;;;;;;5.88;1.90;;;24.50;92.60;;;;;;3567445;40;20456;-71
2021/07/06 06:49:51;;;;;;;4.28;1.60;;;23.70;98.10;;;;;;3566604;40;20463;-71
2021/07/06 06:52:17;;;;;;;3.30;1.60;;;;;;;;;;3567145;40;20417;-70
2021/07/06 06:54:43;;;;;;;3.45;1.42;;;;;;;;;;3566494;40;20394;-73
2021/07/06 06:57:09;;;;;;;2.30;1.50;;;23.70;97.70;;;;;;3566395;40;20503;-70
2021/07/06 06:59:35;;;;;;;2.75;1.17;;;24.20;97.20;;;;;;3566411;40;20409;-70
2021/07/06 07:02:20;;;;;;;3.03;1.30;;;24.20;97.20;;;;;;3567470;40;20785;-71
2021/07/06 07:04:49;;;;;;;1.40;1.00;;;24.30;96.90;;;;;;3569706;40;20428;-70
2021/07/06 07:07:17;;;;;;;1.33;1.05;;;24.40;96.30;;;;;;3577572;40;20461;-70
2021/07/06 07:09:43;;;;;;;1.55;1.00;;;24.40;96.00;;;;;;3576542;40;20859;-72
2021/07/06 07:12:09;;;;;;;3.90;1.20;;;24.40;96.10;;;;;;3568038;40;20408;-70
2021/07/06 07:14:36;;;;;;;2.13;1.10;;;24.50;95.90;;;;;;3577150;40;20675;-70
2021/07/06 07:17:03;;;;;;;1.98;1.15;;;24.50;96.00;;;;;;3576928;40;20411;-72
2021/07/06 07:19:29;;;;;;;1.85;1.10;;;24.60;95.50;;;;;;3577203;40;20400;-70
2021/07/06 07:21:57;;;;;;;1.50;1.00;;;24.70;95.40;;;;;;3585047;40;20408;-70
2021/07/06 07:24:23;;;;;;;2.20;1.55;;;;;;;;;;3573559;40;20404;-70
2021/07/06 07:26:49;;;;;;;1.58;1.13;;;24.80;94.70;;;;;;3576913;40;20487;-70
2021/07/06 07:29:15;;;;;;;2.10;1.38;;;25.00;94.70;;;;;;3568275;40;20716;-71
2021/07/06 07:31:41;;;;;;;2.00;1.17;;;;;;;;;;3578627;40;20384;-71
2021/07/06 07:34:07;;;;;;;1.07;0.97;;;25.00;94.20;;;;;;3575274;40;20469;-72
2021/07/06 07:36:34;;;;;;;2.28;1.20;;;25.20;95.50;;;;;;3568167;40;20774;-73
2021/07/06 07:39:01;;;;;;;2.80;1.70;;;25.10;96.10;;;;;;3578398;40;20395;-71
2021/07/06 07:41:27;;;;;;;1.58;1.25;;;24.90;94.90;;;;;;3568591;40;20407;-71
2021/07/06 07:43:54;;;;;;;2.05;1.10;;;24.80;95.10;;;;;;3577010;40;20486;-71
2021/07/06 07:46:20;;;;;;;3.30;1.65;;;24.90;95.30;;;;;;3577074;40;20839;-70
2021/07/06 07:48:46;;;;;;;1.90;1.50;;;25.00;96.00;;;;;;3576966;40;20384;-70
2021/07/06 07:51:12;;;;;;;1.60;1.13;;;25.00;96.40;;;;;;3561801;40;20646;-70
2021/07/06 07:53:38;;;;;;;2.08;1.20;;;25.00;96.80;;;;;;3576950;40;20765;-71
2021/07/06 07:56:06;;;;;;;2.65;1.30;;;25.00;97.40;;;;;;3576437;40;20400;-71
2021/07/06 07:58:32;;;;;;;2.10;1.40;;;24.90;98.20;;;;;;3567800;40;20412;-71
2021/07/06 08:00:58;;;;;;;1.33;1.17;;;24.90;98.20;;;;;;3567556;40;20402;-71
2021/07/06 08:03:23;;;;;;;2.05;1.50;;;25.00;98.00;;;;;;3577038;40;20384;-71
2021/07/06 08:05:49;;;;;;;1.40;1.23;;;24.90;98.60;;;;;;3576727;40;20431;-70
2021/07/06 08:08:15;;;;;;;2.23;1.63;;;24.90;98.30;;;;;;3577036;40;20418;-72
2021/07/06 08:10:41;;;;;;;2.03;1.30;;;24.80;98.40;;;;;;3576959;40;20391;-71
2021/07/06 08:13:11;;;;;;;2.63;1.15;;;25.00;98.40;;;;;;3576459;40;20420;-70
2021/07/06 08:15:37;;;;;;;2.67;1.42;;;25.00;98.30;;;;;;3573468;40;20378;-71
2021/07/06 08:18:04;;;;;;;1.85;1.65;;;;;;;;;;3572430;40;20414;-71
2021/07/06 08:20:30;;;;;;;2.35;2.15;;;;;;;;;;3568140;40;20380;-71
2021/07/06 08:22:57;;;;;;;2.80;2.50;;;;;;;;;;3567166;40;20451;-75
2021/07/06 08:25:26;;;;;;;4.03;2.65;;;25.10;98.00;;;;;;3567839;40;20391;-71
2021/07/06 08:27:52;;;;;;;2.92;2.63;;;25.50;96.20;;;;;;3567713;40;20384;-74
2021/07/06 08:30:19;;;;;;;2.67;2.30;;;;;;;;;;3578015;40;20444;-71
2021/07/06 08:32:46;;;;;;;2.60;1.88;;;;;;;;;;3577431;40;20388;-74
2021/07/06 08:35:12;;;;;;;3.55;2.22;;;;;;;;;;3578033;40;20757;-70
2021/07/06 08:37:38;;;;;;;3.15;2.85;;;;;;;;;;3578210;40;20386;-71
2021/07/06 08:40:05;;;;;;;4.05;3.40;;;;;;;;;;3578824;40;20787;-71
2021/07/06 08:42:31;;;;;;;3.77;2.63;;;;;;;;;;3578542;40;20391;-70
2021/07/06 08:44:57;;;;;;;3.42;2.65;;;25.70;94.50;;;;;;3568627;40;20808;-71
2021/07/06 08:47:24;;;;;;;3.37;2.97;;;26.20;94.90;;;;;;3568413;40;20422;-72
2021/07/06 08:49:53;;;;;;;4.78;2.83;;;26.40;95.10;;;;;;3568783;40;20406;-72
2021/07/06 08:52:19;;;;;;;3.63;3.13;;;26.50;94.50;;;;;;3577941;40;20390;-72
2021/07/06 08:54:45;;;;;;;4.05;2.90;;;26.40;94.00;;;;;;3577824;40;20489;-71
2021/07/06 08:57:12;;;;;;;3.53;2.80;;;;;;;;;;3577807;40;20395;-71
2021/07/06 08:59:38;;;;;;;3.97;2.85;;;;;;;;;;3568926;40;20408;-71
2021/07/06 09:02:05;;;;;;;5.78;3.53;;;26.50;93.60;;;;;;3560521;40;20408;-70
2021/07/06 09:04:43;;;;;;;4.05;2.42;;;;;;;;;;3575768;40;20412;-71
2021/07/06 09:07:09;;;;;;;3.08;2.80;;;26.70;93.20;;;;;;3568057;40;20753;-71
2021/07/06 09:09:35;;;;;;;3.42;2.97;;;27.00;93.10;;;;;;3567543;40;20397;-70
2021/07/06 09:12:01;;;;;;;5.10;3.30;;;;;;;;;;3568111;40;20643;-70
2021/07/06 09:14:28;;;;;;;5.13;3.20;;;;;;;;;;3573684;40;20383;-70
2021/07/06 09:17:07;;;;;;;7.13;3.58;;;;;;;;;;3568073;40;20420;-71
2021/07/06 09:19:33;;;;;;;4.03;3.63;;;;;;;;;;3567899;40;20358;-71
2021/07/06 09:22:17;;;;;;;3.80;3.03;;;;;;;;;;3574995;40;20385;-71
2021/07/06 09:24:46;;;;;;;3.67;3.20;;;;;;;;;;3568099;40;20455;-71
2021/07/06 09:27:28;;;;;;;4.15;3.42;;;;;;;;;;3574953;40;20401;-71
2021/07/06 09:30:05;;;;;;;3.63;2.85;;;;;;;;;;3566448;40;20850;-71
2021/07/06 09:32:31;;;;;;;5.25;2.38;;;;;;;;;;3567003;40;20396;-72
2021/07/06 09:34:57;;;;;;;3.75;3.25;;;;;;;;;;3570009;40;20381;-71
2021/07/06 09:37:23;;;;;;;3.65;2.90;;;;;;;;;;3569333;40;20449;-71
2021/07/06 09:39:51;;;;;;;4.18;3.47;;;;;;;;;;3568770;40;20393;-72
2021/07/06 09:42:17;;;;;;;3.97;2.90;;;;;;;;;;3567563;40;20386;-76
2021/07/06 09:44:43;;;;;;;3.63;2.67;;;;;;;;;;3567586;40;20422;-71
2021/07/06 09:47:11;;;;;;;5.43;3.88;;;27.10;93.90;;;;;;3567662;40;20468;-73
2021/07/06 09:49:38;;;;;;;3.70;2.45;;;26.90;92.50;;;;;;3558466;40;20654;-70
2021/07/06 09:52:12;;;;;;;2.05;1.85;;;26.90;93.30;;;;;;3567511;40;20373;-71
2021/07/06 09:54:44;;;;;;;3.80;2.40;;;26.80;93.40;;;;;;3561810;40;20366;-71
2021/07/06 09:57:22;;;;;;;2.17;1.98;;;27.00;93.70;;;;;;3567640;40;20449;-70
2021/07/06 10:00:00;;;;;;;2.65;1.83;;;27.10;94.00;;;;;;3562188;40;20385;-74
2021/07/06 10:02:28;;;;;;;3.87;2.60;;;27.10;93.70;;;;;;3564659;40;20405;-71
2021/07/06 10:04:55;;;;;;;2.58;2.38;;;27.20;93.10;;;;;;3567694;40;20413;-71
2021/07/06 10:07:22;;;;;;;3.35;2.78;;;27.10;93.00;;;;;;3566613;40;20385;-73
2021/07/06 10:09:49;;;;;;;5.35;2.70;;;27.10;93.40;;;;;;3567496;40;20389;-71
2021/07/06 10:12:18;;;;;;;5.60;2.47;;;27.20;93.10;;;;;;3566604;40;20483;-71
2021/07/06 10:14:45;;;;;;;3.50;2.90;;;27.30;92.90;;;;;;3567479;40;20394;-71
2021/07/06 10:17:12;;;;;;;2.92;2.70;;;;;;;;;;3560212;40;20429;-74
2021/07/06 10:19:39;;;;;;;2.97;2.30;;;;;;;;;;3567582;40;20482;-71
2021/07/06 10:22:06;;;;;;;3.00;2.10;;;;;;;;;;3567294;40;20382;-71
2021/07/06 10:24:35;;;;;;;3.35;2.60;;;;;;;;;;3567592;40;20385;-71
2021/07/06 10:27:05;;;;;;;2.65;1.67;;;;;;;;;;3567173;40;20429;-71
2021/07/06 10:29:34;;;;;;;3.90;2.17;;;;;;;;;;3566322;40;20460;-71
2021/07/06 10:32:00;;;;;;;2.78;2.50;;;;;;;;;;3567114;40;20830;-70
2021/07/06 10:34:28;;;;;;;2.33;2.13;;;;;;;;;;3567055;40;20498;-71
2021/07/06 10:36:55;;;;;;;3.08;2.40;;;;;;;;;;3567308;40;20405;-71
2021/07/06 10:39:42;;;;;;;3.92;2.90;;;27.40;92.50;;;;;;3566654;40;20392;-70
2021/07/06 10:42:09;;;;;;;2.85;2.58;;;27.40;91.90;;;;;;3566347;40;20389;-70
2021/07/06 10:44:39;;;;;;;3.50;2.27;;;27.30;91.80;;;;;;3567437;40;20417;-71
2021/07/06 10:47:25;;;;;;;3.00;2.33;;;27.30;92.50;;;;;;3567435;40;20385;-69
2021/07/06 10:49:51;;;;;;;2.55;2.30;;;27.30;92.10;;;;;;3567799;40;20397;-71
2021/07/06 10:52:34;;;;;;;2.45;1.90;;;27.30;92.30;;;;;;3549647;40;20410;-70
2021/07/06 10:55:42;;;;;;;5.03;2.45;;;27.50;92.30;;;;;;3565063;40;20625;-71
2021/07/06 10:58:08;;;;;;;2.25;1.92;;;27.60;92.80;;;;;;3561562;40;20659;-71
2021/07/06 11:00:41;;;;;;;1.80;1.70;;;;;;;;;;3567408;40;20405;-70
2021/07/06 11:03:15;;;;;;;3.00;2.70;;;;;;;;;;3561205;40;20473;-72
2021/07/06 11:05:41;;;;;;;4.07;2.20;;;;;;;;;;3574043;40;20407;-70
2021/07/06 11:08:07;;;;;;;2.97;2.10;;;;;;;;;;3577851;40;20457;-71
2021/07/06 11:10:36;;;;;;;2.65;2.45;;;;;;;;;;3576556;40;20371;-70
2021/07/06 11:13:20;;;;;;;3.30;2.53;;;27.90;92.40;;;;;;3577346;40;20741;-71
2021/07/06 11:15:47;;;;;;;2.70;1.48;;;;;;;;;;3572723;40;20463;-71
2021/07/06 11:18:15;;;;;;;2.78;2.13;;;;;;;;;;3580234;40;20470;-71
2021/07/06 11:20:42;;;;;;;2.85;2.22;;;;;;;;;;3577258;40;20376;-71
2021/07/06 11:23:10;;;;;;;4.38;1.95;;;;;;;;;;3584070;40;20471;-71
2021/07/06 11:25:43;;;;;;;3.80;2.08;;;;;;;;;;3575442;40;20396;-71
2021/07/06 11:28:11;;;;;;;4.07;2.55;;;;;;;;;;3577524;40;20756;-71
2021/07/06 11:30:40;;;;;;;2.30;2.10;;;;;;;;;;3586659;40;20636;-70
2021/07/06 11:33:09;;;;;;;2.50;2.30;;;;;;;;;;3586923;40;20375;-70
2021/07/06 11:35:36;;;;;;;3.90;2.17;;;;;;;;;;3580020;40;20417;-71
2021/07/06 11:38:03;;;;;;;3.30;2.08;;;;;;;;;;3577692;40;20786;-70
2021/07/06 11:40:30;;;;;;;2.60;1.40;;;;;;;;;;3579095;40;20444;-70
2021/07/06 11:42:56;;;;;;;2.88;1.48;;;;;;;;;;3577689;40;20399;-71
2021/07/06 11:45:23;;;;;;;3.83;1.92;;;;;;;;;;3577057;40;20384;-70
2021/07/06 11:48:02;;;;;;;1.83;1.67;;;;;;;;;;3571668;40;20372;-71
2021/07/06 11:50:30;;;;;;;1.70;1.50;;;;;;;;;;3577126;40;20419;-71
2021/07/06 11:52:56;;;;;;;2.53;1.55;;;;;;;;;;3571541;40;20394;-71
2021/07/06 11:55:23;;;;;;;2.90;1.70;;;;;;;;;;3567699;40;20792;-70
2021/07/06 11:57:51;;;;;;;4.50;2.30;;;;;;;;;;3567329;40;20807;-71
2021/07/06 12:00:19;;;;;;;3.25;1.67;;;;;;;;;;3577386;40;20391;-70
2021/07/06 12:02:45;;;;;;;2.88;1.60;;;;;;;;;;3567181;40;20403;-71
2021/07/06 12:05:15;;;;;;;1.70;1.60;;;;;;;;;;3568318;40;20424;-70
2021/07/06 12:07:43;;;;;;;3.88;2.40;;;;;;;;;;3576546;40;20469;-70
2021/07/06 12:10:10;;;;;;;2.30;1.70;;;;;;;;;;3577313;40;20396;-70
2021/07/06 12:12:39;;;;;;;1.80;1.27;;;;;;;;;;3576939;40;20505;-71
2021/07/06 12:15:06;;;;;;;3.10;1.70;;;;;;;;;;3576880;40;20364;-71
2021/07/06 12:17:33;;;;;;;3.33;1.73;;;29.70;84.70;;;;;;3570580;40;20841;-71
2021/07/06 12:20:01;;;;;;;1.83;1.55;;;29.60;85.10;;;;;;3576966;40;20379;-70
2021/07/06 12:22:28;;;;;;;1.92;1.25;;;29.60;86.00;;;;;;3567659;40;20638;-70
2021/07/06 12:24:57;;;;;;;1.83;1.00;;;29.40;84.20;;;;;;3577041;40;20380;-72
2021/07/06 12:27:24;;;;;;;2.22;1.20;;;29.30;85.50;;;;;;3582376;40;20380;-71
2021/07/06 12:30:01;;;;;;;5.60;1.63;;;;;;;;;;3577411;40;20388;-71
2021/07/06 12:32:28;;;;;;;2.45;1.42;;;;;;;;;;3578547;40;20378;-72
2021/07/06 12:34:58;;;;;;;3.08;1.20;;;;;;;;;;3577411;40;20372;-70
2021/07/06 12:37:25;;;;;;;1.83;1.00;;;;;;;;;;3578990;40;20392;-71
2021/07/06 12:39:53;;;;;;;1.27;1.10;;;;;;;;;;3568356;40;20399;-71
2021/07/06 12:42:21;;;;;;;1.10;1.00;;;;;;;;;;3568122;40;20419;-70
2021/07/06 12:44:48;;;;;;;6.75;1.30;;;;;;;;;;3577703;40;20391;-70
2021/07/06 12:47:16;;;;;;;3.00;1.10;;;;;;;;;;3577231;40;20661;-73
2021/07/06 12:49:46;;;;;;;1.93;1.27;;;;;;;;;;3576653;40;20372;-71
2021/07/06 12:52:12;;;;;;;1.50;1.08;;;;;;;;;;3575786;40;20379;-69
2021/07/06 12:54:40;;;;;;;1.55;1.00;;;;;;;;;;3576070;40;20408;-71
2021/07/06 12:57:06;;;;;;;1.73;1.10;;;;;;;;;;3576188;40;20437;-71
2021/07/06 12:59:34;;;;;;;2.03;0.82;;;;;;;;;;3575869;40;20372;-71
2021/07/06 13:02:22;;;;;;;1.70;0.88;;;29.20;86.40;;;;;;3576619;40;20432;-71
2021/07/06 13:04:52;;;;;;;1.27;0.70;;;;;;;;;;3571954;40;20429;-71
2021/07/06 13:07:19;;;;;;;1.50;1.02;;;;;;;;;;3566085;40;20382;-70
2021/07/06 13:09:59;;;;;;;1.45;1.10;;;;;;;;;;3572860;40;20393;-71
2021/07/06 13:12:26;;;;;;;2.75;1.10;;;;;;;;;;3566945;40;20374;-71
2021/07/06 13:14:54;;;;;;;1.25;1.05;;;;;;;;;;3566742;40;20386;-70
2021/07/06 13:17:21;;;;;;;1.70;1.00;;;;;;;;;;3557407;40;20409;-71
2021/07/06 13:19:57;;;;;;;1.97;1.00;;;;;;;;;;3568076;40;20390;-70
2021/07/06 13:22:23;;;;;;;1.83;1.10;;;;;;;;;;3571656;40;20765;-70
2021/07/06 13:24:49;;;;;;;1.50;1.00;;;;;;;;;;3571605;40;20408;-71
2021/07/06 13:27:16;;;;;;;1.50;1.08;;;;;;;;;;3570492;40;20376;-70
2021/07/06 13:29:42;;;;;;;1.40;1.17;;;;;;;;;;3572686;40;20378;-69
2021/07/06 13:32:09;;;;;;;1.33;1.00;;;;;;;;;;3569301;40;20399;-71
2021/07/06 13:34:38;;;;;;;1.33;1.20;;;;;;;;;;3568254;40;20393;-70
2021/07/06 13:37:05;;;;;;;1.70;1.30;;;;;;;;;;3571532;40;20403;-70
2021/07/06 13:39:31;;;;;;;0.75;0.75;;;;;;;;;;3568290;40;20759;-70
2021/07/06 13:41:57;;;;;;;1.90;1.05;;;;;;;;;;3567755;40;20650;-70
2021/07/06 13:44:23;;;;;;;1.92;1.05;;;;;;;;;;3567422;40;20397;-70
2021/07/06 13:46:49;;;;;;;1.50;1.15;;;;;;;;;;3558729;40;20429;-71
2021/07/06 13:49:17;;;;;;;1.73;1.20;;;;;;;;;;3567963;40;20463;-72
2021/07/06 13:51:43;;;;;;;2.33;1.33;;;28.30;90.10;;;;;;3559268;40;20394;-71
2021/07/06 13:54:10;;;;;;;3.65;1.50;;;29.30;89.10;;;;;;3551225;40;20404;-70
2021/07/06 13:56:36;;;;;;;3.70;1.65;;;;;;;;;;3568216;40;20479;-70
2021/07/06 13:59:02;;;;;;;1.70;1.60;;;29.20;87.80;;;;;;3559146;40;20438;-70
2021/07/06 14:01:28;;;;;;;2.00;1.50;;;;;;;;;;3558648;40;20417;-71
2021/07/06 14:03:55;;;;;;;1.77;1.52;;;;;;;;;;3567746;40;20709;-65
2021/07/06 14:06:25;;;;;;;3.60;1.80;;;;;;;;;;3570264;40;20439;-68
2021/07/06 14:08:51;;;;;;;2.70;1.23;;;;;;;;;;3577374;40;20375;-71
2021/07/06 14:11:17;;;;;;;2.75;1.40;;;;;;;;;;3573815;40;20867;-71
2021/07/06 14:13:43;;;;;;;1.83;1.48;;;;;;;;;;3576181;40;20427;-71
2021/07/06 14:16:10;;;;;;;1.77;1.13;;;;;;;;;;3579683;40;20788;-71
2021/07/06 14:18:36;;;;;;;2.83;1.20;;;;;;;;;;3583871;40;20406;-71